Terminal Aerodrome Forecast
Issued by NWS Wilmington, NC

Home | Current Version | Previous Version | Text Only | Print | Product List | Glossary On
Versions: 1 2 3 4 5 6 7 8 9 10 11 12
000
FTUS42 KILM 140525
TAFLBT
TAF
KLBT 140525Z 1406/1506 24008KT P6SM SCT200
      TEMPO 1406/1410 23010G17KT
     FM142300 28002KT P6SM SKC=

USA.gov is the U.S. government's official web portal to all federal, state and local government web resources and services.